createdAt,value
2019-04-06T00:00:16.621Z,11.45
2019-04-06T00:05:17.985Z,11.45
2019-04-06T00:10:20.152Z,11.48
2019-04-06T00:15:21.564Z,11.42
2019-04-06T00:20:23.721Z,11.46
2019-04-06T00:25:25.863Z,11.43
2019-04-06T00:30:27.240Z,11.44
2019-04-06T00:35:28.623Z,11.46
2019-04-06T00:40:30.786Z,11.47
2019-04-06T00:45:32.264Z,11.49
2019-04-06T00:50:34.050Z,11.50
2019-04-06T00:55:35.416Z,11.50
2019-04-06T01:00:36.838Z,11.51
2019-04-06T01:05:38.205Z,11.49
2019-04-06T01:10:39.710Z,11.48
2019-04-06T01:15:41.066Z,11.38
2019-04-06T01:20:42.425Z,11.37
2019-04-06T01:25:43.842Z,11.35
2019-04-06T01:30:45.223Z,11.35
2019-04-06T01:35:46.644Z,11.38
2019-04-06T01:40:48.034Z,11.30
2019-04-06T01:45:50.157Z,11.29
2019-04-06T01:50:51.617Z,11.30
2019-04-06T01:55:52.955Z,11.16
2019-04-06T02:06:24.219Z,10.98
2019-04-06T02:11:26.645Z,11.19
2019-04-06T02:16:28.061Z,11.26
2019-04-06T02:21:38.385Z,11.30
2019-04-06T02:26:39.779Z,11.32
2019-04-06T02:31:45.156Z,11.27
2019-04-06T02:36:49.380Z,11.21
2019-04-06T02:41:50.812Z,11.23
2019-04-06T02:46:52.316Z,11.18
2019-04-06T02:51:53.728Z,11.13
2019-04-06T02:56:55.951Z,11.09
2019-04-06T03:01:57.472Z,10.99
2019-04-06T03:06:58.865Z,11.01
2019-04-06T03:12:00.277Z,11.04
2019-04-06T03:17:02.464Z,10.99
2019-04-06T03:22:04.314Z,10.99
2019-04-06T03:27:06.286Z,10.99
2019-04-06T03:32:08.023Z,10.98
2019-04-06T03:37:09.164Z,10.92
2019-04-06T03:42:11.735Z,10.93
2019-04-06T03:47:12.840Z,10.90
2019-04-06T03:52:14.238Z,10.94
2019-04-06T03:57:16.982Z,10.95
2019-04-06T04:02:16.961Z,10.96
2019-04-06T04:07:19.351Z,10.98
2019-04-06T04:12:20.788Z,11.00
2019-04-06T04:17:22.736Z,11.06
2019-04-06T04:22:23.927Z,11.02
2019-04-06T04:27:29.305Z,10.92
2019-04-06T04:32:27.357Z,10.96
2019-04-06T04:37:29.880Z,10.96
2019-04-06T04:42:46.057Z,11.03
2019-04-06T04:47:54.603Z,11.13
2019-04-06T04:52:55.941Z,11.20
2019-04-06T04:57:57.327Z,11.25
2019-04-06T05:02:59.441Z,11.28
2019-04-06T05:08:00.927Z,11.30
2019-04-06T05:13:02.457Z,11.31
2019-04-06T05:18:04.270Z,11.34
2019-04-06T05:23:05.721Z,11.31
2019-04-06T05:28:07.481Z,11.31
2019-04-06T05:33:08.742Z,11.26
2019-04-06T05:38:10.189Z,11.33
2019-04-06T05:43:11.621Z,11.30
2019-04-06T05:48:13.144Z,11.31
2019-04-06T05:53:14.674Z,11.40
2019-04-06T05:58:16.753Z,11.45
2019-04-06T06:03:18.934Z,11.50
2019-04-06T06:08:21.188Z,11.48
2019-04-06T06:13:22.612Z,11.52
2019-04-06T06:18:27.411Z,11.58
2019-04-06T06:23:25.497Z,11.63
2019-04-06T06:28:27.367Z,11.71
2019-04-06T06:33:28.808Z,11.79
2019-04-06T06:38:30.167Z,11.86
2019-04-06T06:43:31.556Z,11.95
2019-04-06T06:48:33.024Z,12.03
2019-04-06T06:53:34.650Z,12.04
2019-04-06T06:58:36.050Z,12.10
2019-04-06T07:03:37.676Z,12.14
2019-04-06T07:08:39.886Z,12.23
2019-04-06T07:13:41.398Z,12.23
2019-04-06T07:18:43.065Z,12.24
2019-04-06T07:23:48.459Z,12.17
2019-04-06T07:28:58.070Z,12.39
2019-04-06T07:34:06.588Z,12.42
2019-04-06T07:39:08.077Z,12.49
2019-04-06T07:44:09.531Z,12.54
2019-04-06T07:49:11.152Z,12.52
2019-04-06T07:54:12.682Z,12.65
2019-04-06T07:59:14.034Z,12.78
2019-04-06T08:04:15.677Z,13.01
2019-04-06T08:09:17.093Z,12.84
2019-04-06T08:14:18.690Z,12.96
2019-04-06T08:19:20.081Z,13.29
2019-04-06T08:24:21.526Z,13.39
2019-04-06T08:29:23.027Z,13.62
2019-04-06T08:34:24.580Z,13.92
2019-04-06T08:39:26.350Z,14.05
2019-04-06T08:44:27.971Z,14.05
2019-04-06T08:49:29.426Z,14.13
2019-04-06T08:54:30.868Z,13.96
2019-04-06T08:59:32.520Z,13.81
2019-04-06T09:04:33.708Z,13.79
2019-04-06T09:09:35.146Z,13.70
2019-04-06T09:14:45.781Z,14.58
2019-04-06T09:19:47.345Z,14.70
2019-04-06T09:24:48.850Z,14.57
2019-04-06T09:29:51.066Z,14.69
2019-04-06T09:34:52.528Z,14.60
2019-04-06T09:39:54.739Z,14.94
2019-04-06T09:44:57.180Z,15.17
2019-04-06T09:50:03.382Z,15.25
2019-04-06T09:55:06.555Z,15.10
2019-04-06T10:00:14.128Z,15.25
2019-04-06T10:05:15.482Z,15.15
2019-04-06T10:10:18.694Z,15.48
2019-04-06T10:15:26.344Z,15.88
2019-04-06T10:20:32.553Z,16.01
2019-04-06T10:25:40.770Z,16.20
2019-04-06T10:36:14.681Z,16.12
2019-04-06T10:41:36.549Z,16.65
2019-04-06T10:46:39.757Z,16.41
2019-04-06T10:51:47.178Z,16.79
2019-04-06T10:56:50.470Z,16.72
2019-04-06T11:02:02.768Z,16.69
2019-04-06T11:07:10.319Z,16.91
2019-04-06T11:12:14.610Z,17.05
2019-04-06T11:22:43.612Z,16.96
2019-04-06T11:27:50.949Z,17.45
2019-04-06T11:32:58.692Z,17.72
2019-04-06T11:38:00.851Z,17.67
2019-04-06T11:48:35.114Z,17.67
2019-04-06T11:53:37.993Z,17.98
2019-04-06T11:58:40.397Z,18.10
2019-04-06T12:03:46.075Z,17.98
2019-04-06T12:08:47.617Z,18.63
2019-04-06T12:13:50.981Z,18.95
2019-04-06T12:24:35.057Z,18.89
2019-04-06T12:35:13.361Z,18.85
2019-04-06T12:40:16.862Z,19.67
2019-04-06T12:45:22.103Z,19.47
2019-04-06T12:50:29.666Z,19.73
2019-04-06T13:01:14.614Z,20.14
2019-04-06T13:06:23.243Z,20.79
2019-04-06T13:11:30.784Z,20.98
2019-04-06T13:16:33.307Z,20.98
2019-04-06T13:21:46.178Z,21.57
2019-04-06T13:26:48.469Z,21.97
2019-04-06T13:37:40.556Z,22.29
2019-04-06T13:48:14.925Z,22.75
2019-04-06T13:53:18.046Z,23.25
2019-04-06T13:58:23.491Z,23.28
2019-04-06T14:09:12.607Z,23.79
2019-04-06T14:14:19.913Z,24.59
2019-04-06T14:19:24.962Z,24.86
2019-04-06T14:24:30.850Z,25.32
2019-04-06T14:35:31.165Z,25.22
2019-04-06T14:40:35.700Z,24.90
2019-04-06T14:45:36.748Z,25.10
2019-04-06T14:50:38.434Z,24.80
2019-04-06T14:55:52.419Z,24.39
2019-04-06T15:06:37.497Z,26.34
2019-04-06T15:11:38.956Z,27.77
2019-04-06T15:22:12.546Z,28.30
2019-04-06T15:27:20.965Z,29.15
2019-04-06T15:32:26.123Z,28.74
2019-04-06T15:37:28.403Z,29.22
2019-04-06T15:53:41.257Z,27.28
2019-04-06T15:58:42.613Z,25.32
2019-04-06T16:04:00.268Z,24.67
2019-04-06T16:09:03.053Z,24.52
2019-04-06T16:14:05.146Z,23.81
2019-04-06T16:19:09.386Z,22.89
2019-04-06T16:24:10.740Z,22.48
2019-04-06T16:29:13.898Z,22.69
2019-04-06T16:34:23.412Z,22.63
2019-04-06T16:44:59.336Z,22.92
2019-04-06T16:50:00.646Z,23.23
2019-04-06T16:55:05.735Z,24.01
2019-04-06T17:00:18.495Z,23.39
2019-04-06T17:05:12.277Z,23.90
2019-04-06T17:10:17.008Z,23.74
2019-04-06T17:15:37.059Z,23.68
2019-04-06T17:20:54.255Z,22.42
2019-04-06T17:25:55.762Z,21.75
2019-04-06T17:30:58.892Z,21.16
2019-04-06T17:41:32.928Z,20.71
2019-04-06T17:52:12.153Z,20.41
2019-04-06T17:57:20.311Z,20.43
2019-04-06T18:02:23.499Z,20.31
2019-04-06T18:07:27.771Z,20.26
2019-04-06T18:12:35.479Z,20.00
2019-04-06T18:17:36.801Z,19.90
2019-04-06T18:22:39.124Z,19.90
2019-04-06T18:27:40.193Z,19.73
2019-04-06T18:32:42.490Z,19.72
2019-04-06T18:37:54.626Z,19.72
2019-04-06T18:42:55.778Z,19.74
2019-04-06T18:47:58.936Z,19.70
2019-04-06T18:53:00.249Z,19.63
2019-04-06T18:58:10.361Z,19.43
2019-04-06T19:03:15.130Z,19.36
2019-04-06T19:08:13.193Z,19.25
2019-04-06T19:13:23.175Z,19.21
2019-04-06T19:18:24.260Z,19.05
2019-04-06T19:23:25.549Z,19.12
2019-04-06T19:28:26.901Z,18.82
2019-04-06T19:33:28.369Z,18.84
2019-04-06T19:38:29.976Z,18.60
2019-04-06T19:43:31.040Z,18.45
2019-04-06T19:48:32.379Z,18.47
2019-04-06T19:53:34.594Z,18.45
2019-04-06T19:58:37.063Z,18.22
2019-04-06T20:03:39.388Z,17.98
2019-04-06T20:08:39.888Z,17.99
2019-04-06T20:13:42.362Z,17.92
2019-04-06T20:18:43.475Z,17.90
2019-04-06T20:23:44.885Z,17.96
2019-04-06T20:28:46.862Z,17.81
2019-04-06T20:33:51.575Z,17.70
2019-04-06T20:38:49.127Z,17.67
2019-04-06T20:43:50.725Z,17.79
2019-04-06T20:48:52.564Z,17.76
2019-04-06T20:53:55.142Z,17.72
2019-04-06T20:58:56.494Z,17.51
2019-04-06T21:04:00.863Z,17.40
2019-04-06T21:08:58.681Z,17.33
2019-04-06T21:14:00.003Z,17.44
2019-04-06T21:19:02.518Z,17.27
2019-04-06T21:24:04.690Z,17.18
2019-04-06T21:29:06.326Z,17.12
2019-04-06T21:34:12.019Z,16.93
2019-04-06T21:39:08.480Z,16.78
2019-04-06T21:44:10.068Z,16.72
2019-04-06T21:49:12.264Z,16.72
2019-04-06T21:54:13.949Z,16.58
2019-04-06T21:59:16.728Z,16.52
2019-04-06T22:04:23.736Z,16.52
2019-04-06T22:09:18.906Z,16.47
2019-04-06T22:14:20.963Z,16.43
2019-04-06T22:19:22.508Z,16.37
2019-04-06T22:24:23.966Z,16.26
2019-04-06T22:29:25.062Z,16.21
2019-04-06T22:34:36.409Z,16.03
2019-04-06T22:39:28.324Z,15.95
2019-04-06T22:44:29.132Z,16.00
2019-04-06T22:49:30.649Z,15.81
2019-04-06T22:54:32.262Z,15.74
2019-04-06T22:59:33.640Z,15.81
2019-04-06T23:04:48.491Z,15.72
2019-04-06T23:09:44.037Z,15.71
2019-04-06T23:14:45.484Z,15.65
2019-04-06T23:19:46.890Z,15.60
2019-04-06T23:24:56.812Z,15.57
2019-04-06T23:29:58.767Z,15.56
2019-04-06T23:35:01.976Z,15.41
2019-04-06T23:40:00.923Z,15.33
2019-04-06T23:45:02.509Z,15.40
2019-04-06T23:50:03.651Z,15.34
2019-04-06T23:55:05.065Z,15.36
